sensor_id;sensor_type;location;lat;lon;timestamp;P1;durP1;ratioP1;P2;durP2;ratioP2
22219;SDS011;11279;48.364;10.904;2022-11-20T00:00:22;11.00;;;5.67;;
22219;SDS011;11279;48.364;10.904;2022-11-20T00:01:23;11.50;;;5.33;;
22219;SDS011;11279;48.364;10.904;2022-11-20T00:02:25;9.30;;;5.38;;
22219;SDS011;11279;48.364;10.904;2022-11-20T00:03:25;9.77;;;5.30;;
22219;SDS011;11279;48.364;10.904;2022-11-20T00:04:26;9.63;;;5.60;;
22219;SDS011;11279;48.364;10.904;2022-11-20T00:05:26;9.77;;;5.80;;
22219;SDS011;11279;48.364;10.904;2022-11-20T00:06:27;10.27;;;5.87;;
22219;SDS011;11279;48.364;10.904;2022-11-20T00:07:28;11.13;;;5.60;;
22219;SDS011;11279;48.364;10.904;2022-11-20T00:08:28;9.70;;;4.97;;
22219;SDS011;11279;48.364;10.904;2022-11-20T00:09:29;11.67;;;5.50;;
22219;SDS011;11279;48.364;10.904;2022-11-20T00:10:29;11.20;;;5.83;;
22219;SDS011;11279;48.364;10.904;2022-11-20T00:11:30;10.53;;;5.60;;
22219;SDS011;11279;48.364;10.904;2022-11-20T00:12:31;8.45;;;5.25;;
22219;SDS011;11279;48.364;10.904;2022-11-20T00:13:32;9.13;;;5.00;;
22219;SDS011;11279;48.364;10.904;2022-11-20T00:14:32;9.90;;;5.40;;
22219;SDS011;11279;48.364;10.904;2022-11-20T00:15:33;11.47;;;5.90;;
22219;SDS011;11279;48.364;10.904;2022-11-20T00:16:34;9.02;;;4.97;;
22219;SDS011;11279;48.364;10.904;2022-11-20T00:17:34;9.80;;;5.10;;
22219;SDS011;11279;48.364;10.904;2022-11-20T00:18:35;10.50;;;5.87;;
22219;SDS011;11279;48.364;10.904;2022-11-20T00:19:35;7.80;;;5.13;;
22219;SDS011;11279;48.364;10.904;2022-11-20T00:20:36;10.93;;;5.80;;
22219;SDS011;11279;48.364;10.904;2022-11-20T00:21:36;11.47;;;5.53;;
22219;SDS011;11279;48.364;10.904;2022-11-20T00:22:37;12.80;;;5.77;;
22219;SDS011;11279;48.364;10.904;2022-11-20T00:23:37;11.03;;;5.60;;
22219;SDS011;11279;48.364;10.904;2022-11-20T00:24:38;10.50;;;5.70;;
22219;SDS011;11279;48.364;10.904;2022-11-20T00:25:38;10.47;;;5.17;;
22219;SDS011;11279;48.364;10.904;2022-11-20T00:26:38;10.73;;;5.60;;
22219;SDS011;11279;48.364;10.904;2022-11-20T00:27:39;10.00;;;6.03;;
22219;SDS011;11279;48.364;10.904;2022-11-20T00:28:39;10.87;;;5.83;;
22219;SDS011;11279;48.364;10.904;2022-11-20T00:29:41;11.15;;;6.15;;
22219;SDS011;11279;48.364;10.904;2022-11-20T00:30:41;10.20;;;5.07;;
22219;SDS011;11279;48.364;10.904;2022-11-20T00:31:41;9.77;;;5.50;;
22219;SDS011;11279;48.364;10.904;2022-11-20T00:32:42;10.37;;;5.87;;
22219;SDS011;11279;48.364;10.904;2022-11-20T00:33:42;10.63;;;5.57;;
22219;SDS011;11279;48.364;10.904;2022-11-20T00:34:43;9.52;;;5.10;;
22219;SDS011;11279;48.364;10.904;2022-11-20T00:35:44;11.30;;;5.50;;
22219;SDS011;11279;48.364;10.904;2022-11-20T00:36:44;9.67;;;5.43;;
22219;SDS011;11279;48.364;10.904;2022-11-20T00:37:45;10.70;;;5.93;;
22219;SDS011;11279;48.364;10.904;2022-11-20T00:38:45;11.27;;;5.90;;
22219;SDS011;11279;48.364;10.904;2022-11-20T00:39:46;13.20;;;5.90;;
22219;SDS011;11279;48.364;10.904;2022-11-20T00:40:46;9.23;;;5.00;;
22219;SDS011;11279;48.364;10.904;2022-11-20T00:41:55;8.95;;;5.22;;
22219;SDS011;11279;48.364;10.904;2022-11-20T00:42:55;8.73;;;5.30;;
22219;SDS011;11279;48.364;10.904;2022-11-20T00:43:55;9.77;;;4.83;;
22219;SDS011;11279;48.364;10.904;2022-11-20T00:44:56;8.63;;;5.23;;
22219;SDS011;11279;48.364;10.904;2022-11-20T00:45:57;11.03;;;5.53;;
22219;SDS011;11279;48.364;10.904;2022-11-20T00:46:58;8.52;;;4.80;;
22219;SDS011;11279;48.364;10.904;2022-11-20T00:47:59;8.70;;;4.93;;
22219;SDS011;11279;48.364;10.904;2022-11-20T00:48:59;7.07;;;4.90;;
22219;SDS011;11279;48.364;10.904;2022-11-20T00:50:00;9.07;;;5.13;;
22219;SDS011;11279;48.364;10.904;2022-11-20T00:51:00;8.63;;;4.70;;
22219;SDS011;11279;48.364;10.904;2022-11-20T00:52:01;11.80;;;5.17;;
22219;SDS011;11279;48.364;10.904;2022-11-20T00:53:01;9.63;;;5.30;;
22219;SDS011;11279;48.364;10.904;2022-11-20T00:54:01;8.20;;;4.93;;
22219;SDS011;11279;48.364;10.904;2022-11-20T00:55:02;8.70;;;5.00;;
22219;SDS011;11279;48.364;10.904;2022-11-20T00:56:04;8.53;;;5.20;;
22219;SDS011;11279;48.364;10.904;2022-11-20T00:57:06;6.68;;;4.47;;
22219;SDS011;11279;48.364;10.904;2022-11-20T00:58:06;7.97;;;4.60;;
22219;SDS011;11279;48.364;10.904;2022-11-20T00:59:08;9.47;;;4.80;;
22219;SDS011;11279;48.364;10.904;2022-11-20T01:00:09;7.57;;;4.68;;
22219;SDS011;11279;48.364;10.904;2022-11-20T01:01:11;9.30;;;4.50;;
22219;SDS011;11279;48.364;10.904;2022-11-20T01:02:13;8.23;;;4.78;;
22219;SDS011;11279;48.364;10.904;2022-11-20T01:03:17;7.70;;;5.10;;
22219;SDS011;11279;48.364;10.904;2022-11-20T01:04:17;10.13;;;4.95;;
22219;SDS011;11279;48.364;10.904;2022-11-20T01:05:18;8.87;;;4.90;;
22219;SDS011;11279;48.364;10.904;2022-11-20T01:06:19;7.70;;;5.00;;
22219;SDS011;11279;48.364;10.904;2022-11-20T01:07:24;7.22;;;4.55;;
22219;SDS011;11279;48.364;10.904;2022-11-20T01:08:24;7.17;;;4.73;;
22219;SDS011;11279;48.364;10.904;2022-11-20T01:09:24;9.00;;;4.43;;
22219;SDS011;11279;48.364;10.904;2022-11-20T01:10:25;7.90;;;4.70;;
22219;SDS011;11279;48.364;10.904;2022-11-20T01:11:27;7.23;;;4.80;;
22219;SDS011;11279;48.364;10.904;2022-11-20T01:12:29;8.80;;;5.20;;
22219;SDS011;11279;48.364;10.904;2022-11-20T01:13:30;12.33;;;4.70;;
22219;SDS011;11279;48.364;10.904;2022-11-20T01:14:39;10.20;;;5.25;;
22219;SDS011;11279;48.364;10.904;2022-11-20T01:15:40;9.13;;;4.87;;
22219;SDS011;11279;48.364;10.904;2022-11-20T01:16:44;6.40;;;4.40;;
22219;SDS011;11279;48.364;10.904;2022-11-20T01:17:46;7.82;;;4.68;;
22219;SDS011;11279;48.364;10.904;2022-11-20T01:18:48;8.03;;;4.40;;
22219;SDS011;11279;48.364;10.904;2022-11-20T01:19:49;9.07;;;5.03;;
22219;SDS011;11279;48.364;10.904;2022-11-20T01:20:50;7.72;;;4.55;;
22219;SDS011;11279;48.364;10.904;2022-11-20T01:21:52;9.27;;;4.83;;
22219;SDS011;11279;48.364;10.904;2022-11-20T01:22:53;9.20;;;4.63;;
22219;SDS011;11279;48.364;10.904;2022-11-20T01:23:53;7.63;;;4.43;;
22219;SDS011;11279;48.364;10.904;2022-11-20T01:24:54;8.50;;;4.70;;
22219;SDS011;11279;48.364;10.904;2022-11-20T01:25:54;7.00;;;4.50;;
22219;SDS011;11279;48.364;10.904;2022-11-20T01:26:55;8.20;;;4.50;;
22219;SDS011;11279;48.364;10.904;2022-11-20T01:27:55;7.17;;;4.53;;
22219;SDS011;11279;48.364;10.904;2022-11-20T01:28:56;8.60;;;4.20;;
22219;SDS011;11279;48.364;10.904;2022-11-20T01:29:57;7.20;;;4.67;;
22219;SDS011;11279;48.364;10.904;2022-11-20T01:30:57;7.67;;;4.53;;
22219;SDS011;11279;48.364;10.904;2022-11-20T01:31:58;8.30;;;4.43;;
22219;SDS011;11279;48.364;10.904;2022-11-20T01:32:58;5.70;;;4.10;;
22219;SDS011;11279;48.364;10.904;2022-11-20T01:34:00;8.23;;;4.40;;
22219;SDS011;11279;48.364;10.904;2022-11-20T01:35:02;6.85;;;4.50;;
22219;SDS011;11279;48.364;10.904;2022-11-20T01:36:03;7.43;;;4.20;;
22219;SDS011;11279;48.364;10.904;2022-11-20T01:37:04;9.23;;;4.90;;
22219;SDS011;11279;48.364;10.904;2022-11-20T01:38:04;7.67;;;4.87;;
22219;SDS011;11279;48.364;10.904;2022-11-20T01:39:15;8.37;;;4.93;;
22219;SDS011;11279;48.364;10.904;2022-11-20T01:40:17;10.02;;;5.05;;
22219;SDS011;11279;48.364;10.904;2022-11-20T01:41:17;5.90;;;4.03;;
22219;SDS011;11279;48.364;10.904;2022-11-20T01:42:36;8.55;;;5.00;;
22219;SDS011;11279;48.364;10.904;2022-11-20T01:43:56;7.03;;;4.25;;
22219;SDS011;11279;48.364;10.904;2022-11-20T01:44:57;9.00;;;4.60;;
22219;SDS011;11279;48.364;10.904;2022-11-20T01:47:04;9.77;;;5.00;;
22219;SDS011;11279;48.364;10.904;2022-11-20T01:48:06;6.43;;;4.57;;
22219;SDS011;11279;48.364;10.904;2022-11-20T01:49:11;7.90;;;4.33;;
22219;SDS011;11279;48.364;10.904;2022-11-20T01:50:18;10.18;;;5.68;;
22219;SDS011;11279;48.364;10.904;2022-11-20T01:51:29;10.30;;;4.40;;
22219;SDS011;11279;48.364;10.904;2022-11-20T01:52:42;8.68;;;4.60;;
22219;SDS011;11279;48.364;10.904;2022-11-20T01:53:46;8.65;;;4.70;;
22219;SDS011;11279;48.364;10.904;2022-11-20T01:55:09;7.07;;;4.55;;
22219;SDS011;11279;48.364;10.904;2022-11-20T01:56:10;9.50;;;5.22;;
22219;SDS011;11279;48.364;10.904;2022-11-20T01:57:12;7.15;;;4.53;;
22219;SDS011;11279;48.364;10.904;2022-11-20T01:58:12;10.63;;;5.80;;
22219;SDS011;11279;48.364;10.904;2022-11-20T01:59:14;10.57;;;5.70;;
22219;SDS011;11279;48.364;10.904;2022-11-20T02:00:17;10.45;;;5.85;;
22219;SDS011;11279;48.364;10.904;2022-11-20T02:01:20;10.98;;;5.55;;
22219;SDS011;11279;48.364;10.904;2022-11-20T02:02:21;8.45;;;4.65;;
22219;SDS011;11279;48.364;10.904;2022-11-20T02:03:21;10.20;;;4.93;;
22219;SDS011;11279;48.364;10.904;2022-11-20T02:04:22;6.97;;;4.77;;
22219;SDS011;11279;48.364;10.904;2022-11-20T02:05:32;11.53;;;5.20;;
22219;SDS011;11279;48.364;10.904;2022-11-20T02:06:38;9.75;;;4.72;;
22219;SDS011;11279;48.364;10.904;2022-11-20T02:07:42;8.48;;;5.35;;
22219;SDS011;11279;48.364;10.904;2022-11-20T02:08:43;9.45;;;5.22;;
22219;SDS011;11279;48.364;10.904;2022-11-20T02:09:43;8.87;;;5.00;;
22219;SDS011;11279;48.364;10.904;2022-11-20T02:10:44;7.53;;;5.13;;
22219;SDS011;11279;48.364;10.904;2022-11-20T02:11:44;10.80;;;5.83;;
22219;SDS011;11279;48.364;10.904;2022-11-20T02:12:45;8.40;;;5.17;;
22219;SDS011;11279;48.364;10.904;2022-11-20T02:14:04;8.85;;;4.63;;
22219;SDS011;11279;48.364;10.904;2022-11-20T02:15:04;7.67;;;5.23;;
22219;SDS011;11279;48.364;10.904;2022-11-20T02:16:08;7.50;;;4.57;;
22219;SDS011;11279;48.364;10.904;2022-11-20T02:17:10;9.57;;;4.63;;
22219;SDS011;11279;48.364;10.904;2022-11-20T02:18:11;8.80;;;4.77;;
22219;SDS011;11279;48.364;10.904;2022-11-20T02:19:27;7.78;;;4.80;;
22219;SDS011;11279;48.364;10.904;2022-11-20T02:20:30;8.95;;;5.35;;
22219;SDS011;11279;48.364;10.904;2022-11-20T02:21:45;9.87;;;4.70;;
22219;SDS011;11279;48.364;10.904;2022-11-20T02:22:54;11.63;;;4.55;;
22219;SDS011;11279;48.364;10.904;2022-11-20T02:25:05;11.73;;;5.70;;
22219;SDS011;11279;48.364;10.904;2022-11-20T02:26:08;9.65;;;4.95;;
22219;SDS011;11279;48.364;10.904;2022-11-20T02:27:10;10.98;;;5.43;;
22219;SDS011;11279;48.364;10.904;2022-11-20T02:28:12;12.57;;;5.20;;
22219;SDS011;11279;48.364;10.904;2022-11-20T02:29:13;10.97;;;5.63;;
22219;SDS011;11279;48.364;10.904;2022-11-20T02:30:19;10.65;;;5.13;;
22219;SDS011;11279;48.364;10.904;2022-11-20T02:31:19;8.37;;;4.90;;
22219;SDS011;11279;48.364;10.904;2022-11-20T02:32:21;10.33;;;5.03;;
22219;SDS011;11279;48.364;10.904;2022-11-20T02:33:25;7.95;;;4.45;;
22219;SDS011;11279;48.364;10.904;2022-11-20T02:34:26;9.50;;;4.63;;
22219;SDS011;11279;48.364;10.904;2022-11-20T02:36:27;7.50;;;4.77;;
22219;SDS011;11279;48.364;10.904;2022-11-20T02:37:30;9.73;;;5.50;;
22219;SDS011;11279;48.364;10.904;2022-11-20T02:38:33;9.45;;;5.18;;
22219;SDS011;11279;48.364;10.904;2022-11-20T02:39:33;9.10;;;4.83;;
22219;SDS011;11279;48.364;10.904;2022-11-20T02:40:34;9.97;;;4.80;;
22219;SDS011;11279;48.364;10.904;2022-11-20T02:41:35;9.23;;;4.70;;
22219;SDS011;11279;48.364;10.904;2022-11-20T02:42:36;15.88;;;6.20;;
22219;SDS011;11279;48.364;10.904;2022-11-20T02:43:37;9.80;;;5.87;;
22219;SDS011;11279;48.364;10.904;2022-11-20T02:44:37;8.83;;;4.80;;
22219;SDS011;11279;48.364;10.904;2022-11-20T02:45:38;7.73;;;4.67;;
22219;SDS011;11279;48.364;10.904;2022-11-20T02:46:38;11.37;;;4.90;;
22219;SDS011;11279;48.364;10.904;2022-11-20T02:47:39;8.40;;;5.03;;
22219;SDS011;11279;48.364;10.904;2022-11-20T02:48:39;7.90;;;5.00;;
22219;SDS011;11279;48.364;10.904;2022-11-20T02:49:40;7.83;;;5.10;;
22219;SDS011;11279;48.364;10.904;2022-11-20T02:50:40;12.83;;;6.17;;
22219;SDS011;11279;48.364;10.904;2022-11-20T02:51:41;9.63;;;5.40;;
22219;SDS011;11279;48.364;10.904;2022-11-20T02:52:41;7.17;;;4.70;;
22219;SDS011;11279;48.364;10.904;2022-11-20T02:53:42;8.80;;;5.60;;
22219;SDS011;11279;48.364;10.904;2022-11-20T02:54:42;11.13;;;5.77;;
22219;SDS011;11279;48.364;10.904;2022-11-20T02:55:43;10.93;;;5.10;;
22219;SDS011;11279;48.364;10.904;2022-11-20T02:56:43;8.13;;;5.17;;
22219;SDS011;11279;48.364;10.904;2022-11-20T02:57:44;8.07;;;5.10;;
22219;SDS011;11279;48.364;10.904;2022-11-20T02:58:44;7.77;;;4.60;;
22219;SDS011;11279;48.364;10.904;2022-11-20T02:59:44;7.73;;;4.80;;
22219;SDS011;11279;48.364;10.904;2022-11-20T03:00:45;8.17;;;5.07;;
22219;SDS011;11279;48.364;10.904;2022-11-20T03:01:45;10.33;;;4.80;;
22219;SDS011;11279;48.364;10.904;2022-11-20T03:02:46;9.27;;;4.87;;
22219;SDS011;11279;48.364;10.904;2022-11-20T03:03:46;9.00;;;5.00;;
22219;SDS011;11279;48.364;10.904;2022-11-20T03:04:48;7.70;;;4.68;;
22219;SDS011;11279;48.364;10.904;2022-11-20T03:05:49;8.70;;;4.63;;
22219;SDS011;11279;48.364;10.904;2022-11-20T03:06:49;7.40;;;4.70;;
22219;SDS011;11279;48.364;10.904;2022-11-20T03:07:49;8.93;;;4.93;;
22219;SDS011;11279;48.364;10.904;2022-11-20T03:08:50;8.07;;;4.87;;
22219;SDS011;11279;48.364;10.904;2022-11-20T03:09:50;7.37;;;4.80;;
22219;SDS011;11279;48.364;10.904;2022-11-20T03:10:51;8.30;;;4.67;;
22219;SDS011;11279;48.364;10.904;2022-11-20T03:11:51;7.87;;;5.07;;
22219;SDS011;11279;48.364;10.904;2022-11-20T03:12:54;7.93;;;4.83;;
22219;SDS011;11279;48.364;10.904;2022-11-20T03:13:55;7.50;;;4.53;;
22219;SDS011;11279;48.364;10.904;2022-11-20T03:14:56;8.70;;;5.17;;
22219;SDS011;11279;48.364;10.904;2022-11-20T03:15:56;8.67;;;4.73;;
22219;SDS011;11279;48.364;10.904;2022-11-20T03:16:57;6.83;;;4.57;;
22219;SDS011;11279;48.364;10.904;2022-11-20T03:17:57;9.37;;;4.70;;
22219;SDS011;11279;48.364;10.904;2022-11-20T03:18:57;9.23;;;5.37;;
22219;SDS011;11279;48.364;10.904;2022-11-20T03:19:58;7.30;;;4.83;;
22219;SDS011;11279;48.364;10.904;2022-11-20T03:20:58;7.60;;;4.80;;
22219;SDS011;11279;48.364;10.904;2022-11-20T03:21:59;8.13;;;4.50;;
22219;SDS011;11279;48.364;10.904;2022-11-20T03:23:00;8.20;;;5.10;;
22219;SDS011;11279;48.364;10.904;2022-11-20T03:24:01;8.10;;;4.80;;
22219;SDS011;11279;48.364;10.904;2022-11-20T03:25:02;7.40;;;4.68;;
22219;SDS011;11279;48.364;10.904;2022-11-20T03:26:22;10.17;;;4.53;;
22219;SDS011;11279;48.364;10.904;2022-11-20T03:27:24;6.72;;;4.22;;
22219;SDS011;11279;48.364;10.904;2022-11-20T03:28:25;8.53;;;4.67;;
22219;SDS011;11279;48.364;10.904;2022-11-20T03:29:25;9.03;;;5.10;;
22219;SDS011;11279;48.364;10.904;2022-11-20T03:30:26;9.37;;;4.50;;
22219;SDS011;11279;48.364;10.904;2022-11-20T03:31:31;7.17;;;4.37;;
22219;SDS011;11279;48.364;10.904;2022-11-20T03:32:35;7.53;;;4.43;;
22219;SDS011;11279;48.364;10.904;2022-11-20T03:33:36;7.47;;;4.37;;
22219;SDS011;11279;48.364;10.904;2022-11-20T03:34:36;8.50;;;4.38;;
22219;SDS011;11279;48.364;10.904;2022-11-20T03:35:37;8.23;;;4.23;;
22219;SDS011;11279;48.364;10.904;2022-11-20T03:36:41;5.47;;;3.83;;
22219;SDS011;11279;48.364;10.904;2022-11-20T03:37:42;7.88;;;4.00;;
22219;SDS011;11279;48.364;10.904;2022-11-20T03:38:43;6.67;;;4.50;;
22219;SDS011;11279;48.364;10.904;2022-11-20T03:39:43;6.93;;;3.87;;
22219;SDS011;11279;48.364;10.904;2022-11-20T03:40:44;6.90;;;4.10;;
22219;SDS011;11279;48.364;10.904;2022-11-20T03:41:44;6.37;;;3.93;;
22219;SDS011;11279;48.364;10.904;2022-11-20T03:42:45;6.73;;;4.00;;
22219;SDS011;11279;48.364;10.904;2022-11-20T03:43:55;7.83;;;4.20;;
22219;SDS011;11279;48.364;10.904;2022-11-20T03:44:57;7.22;;;3.92;;
22219;SDS011;11279;48.364;10.904;2022-11-20T03:45:57;5.57;;;3.87;;
22219;SDS011;11279;48.364;10.904;2022-11-20T03:46:58;8.13;;;4.20;;
22219;SDS011;11279;48.364;10.904;2022-11-20T03:47:58;6.73;;;4.37;;
22219;SDS011;11279;48.364;10.904;2022-11-20T03:48:59;5.57;;;3.97;;
22219;SDS011;11279;48.364;10.904;2022-11-20T03:49:59;7.60;;;4.17;;
22219;SDS011;11279;48.364;10.904;2022-11-20T03:51:06;7.90;;;4.43;;
22219;SDS011;11279;48.364;10.904;2022-11-20T03:52:08;7.22;;;4.18;;
22219;SDS011;11279;48.364;10.904;2022-11-20T03:53:09;8.13;;;4.47;;
22219;SDS011;11279;48.364;10.904;2022-11-20T03:54:09;7.37;;;4.60;;
22219;SDS011;11279;48.364;10.904;2022-11-20T03:55:09;6.07;;;4.40;;
22219;SDS011;11279;48.364;10.904;2022-11-20T03:56:10;5.97;;;4.00;;
22219;SDS011;11279;48.364;10.904;2022-11-20T03:57:12;7.53;;;4.50;;
22219;SDS011;11279;48.364;10.904;2022-11-20T03:58:12;8.97;;;4.20;;
22219;SDS011;11279;48.364;10.904;2022-11-20T03:59:13;6.40;;;4.00;;
22219;SDS011;11279;48.364;10.904;2022-11-20T04:00:14;5.60;;;3.60;;
22219;SDS011;11279;48.364;10.904;2022-11-20T04:01:16;6.97;;;4.43;;
22219;SDS011;11279;48.364;10.904;2022-11-20T04:02:18;6.47;;;4.03;;
22219;SDS011;11279;48.364;10.904;2022-11-20T04:03:18;6.97;;;3.83;;
22219;SDS011;11279;48.364;10.904;2022-11-20T04:04:19;5.40;;;3.73;;
22219;SDS011;11279;48.364;10.904;2022-11-20T04:05:19;7.97;;;3.83;;
22219;SDS011;11279;48.364;10.904;2022-11-20T04:06:20;6.83;;;3.70;;
22219;SDS011;11279;48.364;10.904;2022-11-20T04:07:25;6.32;;;4.18;;
22219;SDS011;11279;48.364;10.904;2022-11-20T04:08:25;7.30;;;3.77;;
22219;SDS011;11279;48.364;10.904;2022-11-20T04:09:26;9.40;;;3.57;;
22219;SDS011;11279;48.364;10.904;2022-11-20T04:10:26;6.87;;;3.37;;
22219;SDS011;11279;48.364;10.904;2022-11-20T04:11:28;5.97;;;3.30;;
22219;SDS011;11279;48.364;10.904;2022-11-20T04:12:31;6.53;;;3.78;;
22219;SDS011;11279;48.364;10.904;2022-11-20T04:13:32;5.82;;;3.63;;
22219;SDS011;11279;48.364;10.904;2022-11-20T04:14:33;6.83;;;3.87;;
22219;SDS011;11279;48.364;10.904;2022-11-20T04:15:33;10.40;;;4.20;;
22219;SDS011;11279;48.364;10.904;2022-11-20T04:16:34;6.53;;;4.10;;
22219;SDS011;11279;48.364;10.904;2022-11-20T04:17:36;7.63;;;4.07;;
22219;SDS011;11279;48.364;10.904;2022-11-20T04:18:36;9.00;;;4.37;;
22219;SDS011;11279;48.364;10.904;2022-11-20T04:19:37;8.37;;;3.83;;
22219;SDS011;11279;48.364;10.904;2022-11-20T04:20:37;5.57;;;3.60;;
22219;SDS011;11279;48.364;10.904;2022-11-20T04:21:37;8.70;;;4.07;;
22219;SDS011;11279;48.364;10.904;2022-11-20T04:22:38;6.37;;;4.13;;
22219;SDS011;11279;48.364;10.904;2022-11-20T04:23:38;6.10;;;3.67;;
22219;SDS011;11279;48.364;10.904;2022-11-20T04:24:39;7.13;;;3.80;;
22219;SDS011;11279;48.364;10.904;2022-11-20T04:25:39;9.80;;;4.40;;
22219;SDS011;11279;48.364;10.904;2022-11-20T04:26:40;8.13;;;3.90;;
22219;SDS011;11279;48.364;10.904;2022-11-20T04:27:40;6.83;;;3.70;;
22219;SDS011;11279;48.364;10.904;2022-11-20T04:28:41;5.07;;;3.40;;
22219;SDS011;11279;48.364;10.904;2022-11-20T04:29:41;7.20;;;3.90;;
22219;SDS011;11279;48.364;10.904;2022-11-20T04:30:42;5.93;;;4.03;;
22219;SDS011;11279;48.364;10.904;2022-11-20T04:31:42;5.57;;;3.93;;
22219;SDS011;11279;48.364;10.904;2022-11-20T04:32:42;7.10;;;3.97;;
22219;SDS011;11279;48.364;10.904;2022-11-20T04:33:43;6.07;;;3.70;;
22219;SDS011;11279;48.364;10.904;2022-11-20T04:34:43;5.20;;;3.70;;
22219;SDS011;11279;48.364;10.904;2022-11-20T04:35:44;5.73;;;3.70;;
22219;SDS011;11279;48.364;10.904;2022-11-20T04:36:47;8.10;;;4.22;;
22219;SDS011;11279;48.364;10.904;2022-11-20T04:37:47;6.80;;;4.00;;
22219;SDS011;11279;48.364;10.904;2022-11-20T04:38:51;5.13;;;3.70;;
22219;SDS011;11279;48.364;10.904;2022-11-20T04:39:53;8.00;;;3.90;;
22219;SDS011;11279;48.364;10.904;2022-11-20T04:40:57;6.53;;;4.10;;
22219;SDS011;11279;48.364;10.904;2022-11-20T04:41:58;7.57;;;4.03;;
22219;SDS011;11279;48.364;10.904;2022-11-20T04:43:17;7.07;;;3.78;;
22219;SDS011;11279;48.364;10.904;2022-11-20T04:44:17;7.53;;;3.77;;
22219;SDS011;11279;48.364;10.904;2022-11-20T04:45:18;6.13;;;3.57;;
22219;SDS011;11279;48.364;10.904;2022-11-20T04:46:19;5.73;;;3.53;;
22219;SDS011;11279;48.364;10.904;2022-11-20T04:47:20;5.63;;;3.83;;
22219;SDS011;11279;48.364;10.904;2022-11-20T04:48:20;7.17;;;3.67;;
22219;SDS011;11279;48.364;10.904;2022-11-20T04:49:21;6.00;;;3.60;;
22219;SDS011;11279;48.364;10.904;2022-11-20T04:50:21;6.70;;;3.43;;
22219;SDS011;11279;48.364;10.904;2022-11-20T04:51:22;5.90;;;3.53;;
22219;SDS011;11279;48.364;10.904;2022-11-20T04:52:22;7.63;;;3.87;;
22219;SDS011;11279;48.364;10.904;2022-11-20T04:53:23;4.97;;;3.50;;
22219;SDS011;11279;48.364;10.904;2022-11-20T04:54:23;5.27;;;3.40;;
22219;SDS011;11279;48.364;10.904;2022-11-20T04:55:24;7.63;;;3.60;;
22219;SDS011;11279;48.364;10.904;2022-11-20T04:56:24;5.00;;;3.60;;
22219;SDS011;11279;48.364;10.904;2022-11-20T04:57:25;4.70;;;3.37;;
22219;SDS011;11279;48.364;10.904;2022-11-20T04:58:25;6.07;;;3.57;;
22219;SDS011;11279;48.364;10.904;2022-11-20T04:59:26;6.27;;;3.60;;
22219;SDS011;11279;48.364;10.904;2022-11-20T05:00:26;6.13;;;3.83;;
22219;SDS011;11279;48.364;10.904;2022-11-20T05:01:27;6.20;;;3.40;;
22219;SDS011;11279;48.364;10.904;2022-11-20T05:02:27;7.53;;;3.40;;
22219;SDS011;11279;48.364;10.904;2022-11-20T05:03:27;4.77;;;3.30;;
22219;SDS011;11279;48.364;10.904;2022-11-20T05:04:28;5.47;;;3.50;;
22219;SDS011;11279;48.364;10.904;2022-11-20T05:05:28;4.97;;;3.67;;
22219;SDS011;11279;48.364;10.904;2022-11-20T05:06:29;7.53;;;3.90;;
22219;SDS011;11279;48.364;10.904;2022-11-20T05:07:29;8.17;;;3.97;;
22219;SDS011;11279;48.364;10.904;2022-11-20T05:08:30;5.20;;;3.20;;
22219;SDS011;11279;48.364;10.904;2022-11-20T05:09:31;4.22;;;3.10;;
22219;SDS011;11279;48.364;10.904;2022-11-20T05:10:31;4.80;;;3.17;;
22219;SDS011;11279;48.364;10.904;2022-11-20T05:11:32;4.50;;;3.30;;
22219;SDS011;11279;48.364;10.904;2022-11-20T05:12:32;5.10;;;3.60;;
22219;SDS011;11279;48.364;10.904;2022-11-20T05:13:33;4.77;;;3.30;;
22219;SDS011;11279;48.364;10.904;2022-11-20T05:14:34;6.33;;;3.67;;
22219;SDS011;11279;48.364;10.904;2022-11-20T05:15:34;8.30;;;3.57;;
22219;SDS011;11279;48.364;10.904;2022-11-20T05:16:35;7.57;;;3.40;;
22219;SDS011;11279;48.364;10.904;2022-11-20T05:17:36;7.25;;;3.28;;
22219;SDS011;11279;48.364;10.904;2022-11-20T05:18:37;4.93;;;3.47;;
22219;SDS011;11279;48.364;10.904;2022-11-20T05:19:38;6.10;;;3.42;;
22219;SDS011;11279;48.364;10.904;2022-11-20T05:20:38;5.97;;;3.13;;
22219;SDS011;11279;48.364;10.904;2022-11-20T05:21:38;5.93;;;3.23;;
22219;SDS011;11279;48.364;10.904;2022-11-20T05:22:39;6.30;;;3.13;;
22219;SDS011;11279;48.364;10.904;2022-11-20T05:23:39;6.60;;;3.50;;
22219;SDS011;11279;48.364;10.904;2022-11-20T05:24:40;6.93;;;3.57;;
22219;SDS011;11279;48.364;10.904;2022-11-20T05:25:40;5.20;;;3.10;;
22219;SDS011;11279;48.364;10.904;2022-11-20T05:26:41;5.40;;;3.30;;
22219;SDS011;11279;48.364;10.904;2022-11-20T05:27:41;4.43;;;2.80;;
22219;SDS011;11279;48.364;10.904;2022-11-20T05:28:43;5.47;;;3.10;;
22219;SDS011;11279;48.364;10.904;2022-11-20T05:29:43;6.70;;;3.28;;
22219;SDS011;11279;48.364;10.904;2022-11-20T05:30:44;4.97;;;3.27;;
22219;SDS011;11279;48.364;10.904;2022-11-20T05:31:44;7.40;;;3.27;;
22219;SDS011;11279;48.364;10.904;2022-11-20T05:32:45;6.53;;;3.70;;
22219;SDS011;11279;48.364;10.904;2022-11-20T05:33:45;6.03;;;3.37;;
22219;SDS011;11279;48.364;10.904;2022-11-20T05:34:46;6.23;;;3.50;;
22219;SDS011;11279;48.364;10.904;2022-11-20T05:35:46;7.87;;;3.50;;
22219;SDS011;11279;48.364;10.904;2022-11-20T05:36:48;4.10;;;3.10;;
22219;SDS011;11279;48.364;10.904;2022-11-20T05:37:48;4.80;;;3.20;;
22219;SDS011;11279;48.364;10.904;2022-11-20T05:38:48;4.50;;;3.17;;
22219;SDS011;11279;48.364;10.904;2022-11-20T05:39:49;4.87;;;3.47;;
22219;SDS011;11279;48.364;10.904;2022-11-20T05:40:49;8.07;;;3.20;;
22219;SDS011;11279;48.364;10.904;2022-11-20T05:41:50;4.73;;;3.17;;
22219;SDS011;11279;48.364;10.904;2022-11-20T05:43:10;6.25;;;3.33;;
22219;SDS011;11279;48.364;10.904;2022-11-20T05:44:11;5.23;;;3.67;;
22219;SDS011;11279;48.364;10.904;2022-11-20T05:45:11;5.40;;;3.57;;
22219;SDS011;11279;48.364;10.904;2022-11-20T05:46:12;4.93;;;3.33;;
22219;SDS011;11279;48.364;10.904;2022-11-20T05:47:14;4.63;;;3.17;;
22219;SDS011;11279;48.364;10.904;2022-11-20T05:48:14;5.63;;;3.30;;
22219;SDS011;11279;48.364;10.904;2022-11-20T05:49:15;5.70;;;3.53;;
22219;SDS011;11279;48.364;10.904;2022-11-20T05:50:15;5.10;;;3.27;;
22219;SDS011;11279;48.364;10.904;2022-11-20T05:51:16;5.50;;;3.23;;
22219;SDS011;11279;48.364;10.904;2022-11-20T05:52:18;6.10;;;3.33;;
22219;SDS011;11279;48.364;10.904;2022-11-20T05:53:18;5.80;;;3.20;;
22219;SDS011;11279;48.364;10.904;2022-11-20T05:54:19;3.67;;;2.70;;
22219;SDS011;11279;48.364;10.904;2022-11-20T05:55:19;4.67;;;3.00;;
22219;SDS011;11279;48.364;10.904;2022-11-20T05:56:20;5.87;;;3.10;;
22219;SDS011;11279;48.364;10.904;2022-11-20T05:57:21;4.72;;;2.58;;
22219;SDS011;11279;48.364;10.904;2022-11-20T05:58:21;5.83;;;3.20;;
22219;SDS011;11279;48.364;10.904;2022-11-20T05:59:22;4.50;;;3.20;;
22219;SDS011;11279;48.364;10.904;2022-11-20T06:00:22;3.70;;;2.90;;
22219;SDS011;11279;48.364;10.904;2022-11-20T06:01:23;5.93;;;3.13;;
22219;SDS011;11279;48.364;10.904;2022-11-20T06:02:25;4.85;;;3.08;;
22219;SDS011;11279;48.364;10.904;2022-11-20T06:03:25;5.10;;;2.77;;
22219;SDS011;11279;48.364;10.904;2022-11-20T06:04:26;4.30;;;2.87;;
22219;SDS011;11279;48.364;10.904;2022-11-20T06:05:26;4.83;;;3.03;;
22219;SDS011;11279;48.364;10.904;2022-11-20T06:06:26;4.50;;;3.10;;
22219;SDS011;11279;48.364;10.904;2022-11-20T06:07:27;4.67;;;2.73;;
22219;SDS011;11279;48.364;10.904;2022-11-20T06:08:27;4.50;;;2.97;;